createdAt,value
2018-08-13T00:02:04.308Z,1.60
2018-08-13T00:04:36.177Z,1.60
2018-08-13T00:07:06.402Z,1.70
2018-08-13T00:09:42.239Z,1.80
2018-08-13T00:12:13.619Z,1.60
2018-08-13T00:14:44.678Z,1.60
2018-08-13T00:17:14.572Z,1.80
2018-08-13T00:19:45.307Z,1.57
2018-08-13T00:22:15.175Z,1.60
2018-08-13T00:24:45.126Z,1.63
2018-08-13T00:27:15.009Z,1.73
2018-08-13T00:29:45.319Z,1.70
2018-08-13T00:32:15.246Z,1.77
2018-08-13T00:34:45.724Z,1.63
2018-08-13T00:37:16.136Z,1.70
2018-08-13T00:39:46.823Z,1.90
2018-08-13T00:42:17.740Z,1.40
2018-08-13T00:44:48.670Z,1.80
2018-08-13T00:47:18.548Z,1.57
2018-08-13T00:49:48.384Z,1.77
2018-08-13T00:52:18.244Z,1.70
2018-08-13T00:54:48.190Z,1.60
2018-08-13T00:57:18.072Z,1.47
2018-08-13T00:59:48.504Z,1.70
2018-08-13T01:02:18.402Z,1.60
2018-08-13T01:04:48.236Z,1.60
2018-08-13T01:07:18.059Z,1.70
2018-08-13T01:09:47.988Z,2.03
2018-08-13T01:12:17.852Z,1.50
2018-08-13T01:14:49.136Z,1.77
2018-08-13T01:17:19.008Z,1.60
2018-08-13T01:19:48.879Z,1.97
2018-08-13T01:22:18.734Z,1.63
2018-08-13T01:24:49.856Z,1.50
2018-08-13T01:27:25.151Z,1.73
2018-08-13T01:29:58.155Z,1.57
2018-08-13T01:32:28.291Z,1.50
2018-08-13T01:35:00.695Z,1.90
2018-08-13T01:37:32.984Z,1.70
2018-08-13T01:40:04.720Z,1.43
2018-08-13T01:42:36.560Z,1.60
2018-08-13T01:45:07.706Z,1.97
2018-08-13T01:47:38.329Z,1.80
2018-08-13T01:50:10.621Z,1.77
2018-08-13T01:52:43.448Z,1.77
2018-08-13T01:56:16.332Z,2.07
2018-08-13T01:58:47.244Z,1.67
2018-08-13T02:01:19.466Z,1.80
2018-08-13T02:03:50.865Z,2.13
2018-08-13T02:06:20.862Z,1.83
2018-08-13T02:08:50.751Z,1.67
2018-08-13T02:11:21.680Z,1.80
2018-08-13T02:13:51.560Z,1.70
2018-08-13T02:16:21.876Z,2.00
2018-08-13T02:18:51.820Z,1.80
2018-08-13T02:21:21.896Z,1.67
2018-08-13T02:23:51.777Z,1.80
2018-08-13T02:26:22.164Z,1.93
2018-08-13T02:28:52.048Z,2.00
2018-08-13T02:31:21.924Z,1.83
2018-08-13T02:33:52.665Z,1.70
2018-08-13T02:36:22.629Z,1.60
2018-08-13T02:38:52.479Z,1.80
2018-08-13T02:41:22.924Z,1.80
2018-08-13T02:43:52.849Z,1.63
2018-08-13T02:46:22.806Z,2.10
2018-08-13T02:48:52.632Z,1.73
2018-08-13T02:51:22.609Z,1.63
2018-08-13T02:53:54.524Z,1.93
2018-08-13T02:56:25.862Z,1.80
2018-08-13T02:58:55.729Z,2.00
2018-08-13T03:01:25.611Z,1.77
2018-08-13T03:03:55.569Z,2.00
2018-08-13T03:06:25.468Z,2.00
2018-08-13T03:08:55.425Z,2.00
2018-08-13T03:11:25.745Z,1.80
2018-08-13T03:13:55.687Z,2.00
2018-08-13T03:16:26.635Z,1.83
2018-08-13T03:18:56.585Z,2.20
2018-08-13T03:21:26.457Z,1.90
2018-08-13T03:23:56.321Z,1.80
2018-08-13T03:26:28.539Z,1.90
2018-08-13T03:28:58.438Z,1.90
2018-08-13T03:31:28.316Z,2.10
2018-08-13T03:33:58.693Z,1.93
2018-08-13T03:36:28.985Z,1.90
2018-08-13T03:38:59.649Z,2.20
2018-08-13T03:41:29.455Z,2.03
2018-08-13T03:44:00.421Z,1.97
2018-08-13T03:46:30.275Z,1.90
2018-08-13T03:49:00.571Z,1.90
2018-08-13T03:51:30.467Z,1.90
2018-08-13T03:54:00.325Z,2.00
2018-08-13T03:56:30.187Z,1.80
2018-08-13T03:59:00.474Z,2.03
2018-08-13T04:01:30.355Z,2.00
2018-08-13T04:04:01.880Z,2.30
2018-08-13T04:06:32.614Z,2.10
2018-08-13T04:09:02.485Z,2.17
2018-08-13T04:11:34.965Z,2.10
2018-08-13T04:14:07.277Z,2.50
2018-08-13T04:16:37.748Z,2.17
2018-08-13T04:19:09.442Z,2.10
2018-08-13T04:21:40.550Z,2.30
2018-08-13T04:24:11.440Z,2.23
2018-08-13T04:26:42.672Z,2.10
2018-08-13T04:29:12.557Z,2.23
2018-08-13T04:31:42.431Z,1.90
2018-08-13T04:34:15.450Z,2.10
2018-08-13T04:36:45.319Z,2.30
2018-08-13T04:39:16.068Z,2.07
2018-08-13T04:41:46.420Z,2.03
2018-08-13T04:44:16.325Z,2.17
2018-08-13T04:46:46.167Z,2.53
2018-08-13T04:49:20.204Z,2.30
2018-08-13T04:51:51.693Z,2.23
2018-08-13T04:54:21.544Z,2.23
2018-08-13T04:56:52.275Z,2.40
2018-08-13T04:59:22.228Z,2.10
2018-08-13T05:01:52.093Z,2.20
2018-08-13T05:04:22.377Z,2.10
2018-08-13T05:06:53.071Z,1.97
2018-08-13T05:09:24.225Z,2.30
2018-08-13T05:11:54.028Z,2.10
2018-08-13T05:14:28.650Z,2.10
2018-08-13T05:16:58.499Z,2.37
2018-08-13T05:19:29.935Z,2.30
2018-08-13T05:22:02.269Z,2.10
2018-08-13T05:24:34.026Z,2.23
2018-08-13T05:27:04.576Z,2.77
2018-08-13T05:29:34.835Z,2.30
2018-08-13T05:32:05.780Z,2.50
2018-08-13T05:34:35.751Z,2.23
2018-08-13T05:37:05.643Z,2.13
2018-08-13T05:39:35.479Z,2.27
2018-08-13T05:42:05.455Z,2.13
2018-08-13T05:44:35.401Z,2.10
2018-08-13T05:47:05.745Z,2.50
2018-08-13T05:49:35.831Z,2.30
2018-08-13T05:52:05.860Z,2.07
2018-08-13T05:54:36.407Z,2.00
2018-08-13T05:57:06.326Z,2.10
2018-08-13T05:59:39.367Z,2.03
2018-08-13T06:02:10.461Z,2.00
2018-08-13T06:04:41.305Z,2.00
2018-08-13T06:07:12.649Z,2.10
2018-08-13T06:09:44.381Z,2.10
2018-08-13T06:12:16.652Z,2.13
2018-08-13T06:14:52.549Z,2.00
2018-08-13T06:17:22.680Z,1.90
2018-08-13T06:19:59.739Z,2.10
2018-08-13T06:22:30.412Z,2.00
2018-08-13T06:25:01.202Z,2.10
2018-08-13T06:30:18.939Z,1.90
2018-08-13T06:32:51.248Z,1.90
2018-08-13T06:35:22.341Z,1.90
2018-08-13T06:37:53.124Z,2.07
2018-08-13T06:40:24.492Z,2.33
2018-08-13T06:42:54.983Z,2.00
2018-08-13T06:45:26.568Z,2.10
2018-08-13T06:48:00.686Z,1.97
2018-08-13T06:50:30.563Z,2.03
2018-08-13T06:53:03.547Z,1.97
2018-08-13T06:55:35.695Z,2.30
2018-08-13T06:58:06.298Z,2.37
2018-08-13T07:00:39.877Z,1.93
2018-08-13T07:03:11.821Z,1.93
2018-08-13T07:05:43.589Z,2.07
2018-08-13T07:08:16.264Z,2.53
2018-08-13T07:10:47.324Z,1.80
2018-08-13T07:13:18.447Z,2.20
2018-08-13T07:15:49.635Z,2.10
2018-08-13T07:18:22.475Z,1.87
2018-08-13T07:20:54.975Z,1.70
2018-08-13T07:23:26.405Z,2.10
2018-08-13T07:25:57.450Z,2.07
2018-08-13T07:28:30.368Z,2.00
2018-08-13T07:31:00.329Z,1.80
2018-08-13T07:33:33.974Z,2.50
2018-08-13T07:36:06.117Z,1.90
2018-08-13T07:38:37.116Z,1.80
2018-08-13T07:41:11.193Z,2.10
2018-08-13T07:43:41.087Z,2.03
2018-08-13T07:46:11.109Z,1.80
2018-08-13T07:48:42.032Z,1.87
2018-08-13T07:51:13.581Z,1.80
2018-08-13T07:53:46.658Z,2.10
2018-08-13T07:56:19.072Z,1.83
2018-08-13T07:58:51.299Z,2.00
2018-08-13T08:01:22.362Z,2.10
2018-08-13T08:03:54.682Z,1.87
2018-08-13T08:06:29.130Z,1.80
2018-08-13T08:09:01.641Z,2.00
2018-08-13T08:11:31.530Z,1.80
2018-08-13T08:14:01.787Z,2.13
2018-08-13T08:16:31.645Z,1.83
2018-08-13T08:19:01.642Z,2.17
2018-08-13T08:21:32.657Z,1.93
2018-08-13T08:24:03.783Z,1.90
2018-08-13T08:26:33.620Z,1.70
2018-08-13T08:29:05.618Z,1.80
2018-08-13T08:31:43.511Z,1.90
2018-08-13T08:34:15.649Z,1.80
2018-08-13T08:36:50.538Z,1.90
2018-08-13T08:39:22.993Z,1.80
2018-08-13T08:41:53.897Z,1.77
2018-08-13T08:44:25.667Z,1.70
2018-08-13T08:46:56.027Z,1.50
2018-08-13T08:49:26.391Z,1.50
2018-08-13T08:51:58.106Z,1.47
2018-08-13T08:54:29.413Z,1.80
2018-08-13T08:57:00.508Z,1.50
2018-08-13T08:59:31.599Z,1.70
2018-08-13T09:02:04.004Z,1.73
2018-08-13T09:04:35.446Z,1.80
2018-08-13T09:07:05.992Z,1.67
2018-08-13T09:09:36.190Z,1.70
2018-08-13T09:12:06.697Z,1.47
2018-08-13T09:14:38.769Z,1.50
2018-08-13T09:17:11.297Z,1.70
2018-08-13T09:19:51.730Z,1.80
2018-08-13T09:22:32.927Z,1.50
2018-08-13T09:25:14.574Z,1.70
2018-08-13T09:27:58.182Z,1.50
2018-08-13T09:32:45.739Z,1.83
2018-08-13T09:38:03.898Z,1.37
2018-08-13T09:40:34.341Z,1.53
2018-08-13T09:43:04.804Z,1.53
2018-08-13T09:45:59.095Z,1.70
2018-08-13T09:48:36.035Z,1.70
2018-08-13T09:51:10.013Z,1.43
2018-08-13T09:53:39.930Z,1.57
2018-08-13T09:56:11.291Z,1.80
2018-08-13T09:58:43.312Z,1.70
2018-08-13T10:01:14.432Z,1.70
2018-08-13T10:03:45.287Z,1.60
2018-08-13T10:06:15.081Z,1.93
2018-08-13T10:08:46.893Z,1.77
2018-08-13T10:11:19.282Z,1.70
2018-08-13T10:13:49.916Z,1.70
2018-08-13T10:16:21.265Z,1.70
2018-08-13T10:18:51.448Z,1.60
2018-08-13T10:21:26.046Z,1.70
2018-08-13T10:23:57.610Z,1.67
2018-08-13T10:26:27.514Z,1.43
2018-08-13T10:28:58.953Z,1.50
2018-08-13T10:31:28.903Z,1.50
2018-08-13T10:34:00.160Z,1.43
2018-08-13T10:36:30.021Z,1.40
2018-08-13T10:39:01.334Z,1.37
2018-08-13T10:41:33.264Z,1.10
2018-08-13T10:44:04.320Z,1.27
2018-08-13T10:46:35.668Z,1.30
2018-08-13T10:49:06.410Z,1.53
2018-08-13T10:51:39.249Z,1.10
2018-08-13T10:54:10.874Z,1.30
2018-08-13T10:56:42.184Z,1.40
2018-08-13T10:59:14.546Z,1.10
2018-08-13T11:01:45.834Z,1.20
2018-08-13T11:04:17.301Z,1.20
2018-08-13T11:06:47.176Z,1.20
2018-08-13T11:09:22.957Z,1.30
2018-08-13T11:11:54.285Z,1.20
2018-08-13T11:14:24.786Z,1.40
2018-08-13T11:24:05.937Z,1.40
2018-08-13T11:26:36.420Z,1.10
2018-08-13T11:29:06.338Z,1.30
2018-08-13T11:31:37.747Z,1.53
2018-08-13T11:34:08.527Z,1.20
2018-08-13T11:36:39.363Z,1.77
2018-08-13T11:39:12.464Z,1.60
2018-08-13T11:41:42.983Z,1.57
2018-08-13T11:44:13.107Z,1.70
2018-08-13T11:46:43.147Z,1.50
2018-08-13T11:49:14.289Z,1.70
2018-08-13T11:51:44.128Z,1.40
2018-08-13T11:54:15.238Z,1.43
2018-08-13T11:56:49.501Z,1.50
2018-08-13T11:59:19.372Z,1.57
2018-08-13T12:01:52.307Z,1.43
2018-08-13T12:04:22.178Z,1.50
2018-08-13T12:06:52.720Z,1.47
2018-08-13T12:09:24.643Z,1.70
2018-08-13T12:11:55.332Z,1.63
2018-08-13T12:14:25.189Z,1.90
2018-08-13T12:16:56.464Z,1.90
2018-08-13T12:19:26.361Z,1.70
2018-08-13T12:21:57.388Z,2.10
2018-08-13T12:24:34.817Z,1.83
2018-08-13T12:27:06.604Z,1.90
2018-08-13T12:29:36.985Z,1.77
2018-08-13T12:32:09.411Z,1.83
2018-08-13T12:34:39.717Z,1.60
2018-08-13T12:37:11.195Z,1.47
2018-08-13T12:39:41.406Z,1.63
2018-08-13T12:42:11.970Z,1.70
2018-08-13T12:44:42.971Z,1.33
2018-08-13T12:47:18.846Z,1.80
2018-08-13T12:49:49.409Z,1.80
2018-08-13T12:52:20.287Z,1.60
2018-08-13T12:54:51.280Z,1.50
2018-08-13T12:57:21.857Z,1.90
2018-08-13T12:59:53.997Z,1.83
2018-08-13T13:02:31.586Z,1.87
2018-08-13T13:05:03.216Z,1.87
2018-08-13T13:07:36.730Z,1.80
2018-08-13T13:10:12.719Z,1.80
2018-08-13T13:12:46.180Z,1.87
2018-08-13T13:15:21.875Z,2.10
2018-08-13T13:17:54.389Z,2.30
2018-08-13T13:20:24.772Z,2.00
2018-08-13T13:22:56.167Z,2.30
2018-08-13T13:25:28.648Z,2.20
2018-08-13T13:28:01.298Z,2.30
2018-08-13T13:30:32.332Z,2.30
2018-08-13T13:33:08.598Z,2.30
2018-08-13T13:35:40.236Z,1.97
2018-08-13T13:38:11.517Z,2.60
2018-08-13T13:40:45.163Z,2.20
2018-08-13T13:43:17.070Z,2.50
2018-08-13T13:45:47.434Z,2.40
2018-08-13T13:48:18.181Z,2.20
2018-08-13T13:50:48.065Z,2.07
2018-08-13T13:53:18.866Z,2.20
2018-08-13T13:55:49.041Z,2.30
2018-08-13T13:58:23.336Z,2.40
2018-08-13T14:00:53.960Z,2.30
2018-08-13T14:03:29.495Z,2.13
2018-08-13T14:06:00.318Z,2.03
2018-08-13T14:08:30.543Z,2.50
2018-08-13T14:11:05.628Z,2.20
2018-08-13T14:13:38.660Z,2.37
2018-08-13T14:16:09.465Z,2.60
2018-08-13T14:18:40.875Z,2.30
2018-08-13T14:21:12.607Z,2.30
2018-08-13T14:23:43.458Z,2.40
2018-08-13T14:26:14.517Z,2.30
2018-08-13T14:28:45.728Z,2.13
2018-08-13T14:31:16.065Z,2.43
2018-08-13T14:33:48.629Z,2.47
2018-08-13T14:36:19.376Z,2.30
2018-08-13T14:38:50.372Z,2.30
2018-08-13T14:41:21.070Z,2.40
2018-08-13T14:43:54.795Z,1.97
2018-08-13T14:46:24.643Z,2.50
2018-08-13T14:48:58.730Z,2.10
2018-08-13T14:51:37.157Z,2.10
2018-08-13T14:54:08.256Z,2.50
2018-08-13T14:56:44.425Z,2.23
2018-08-13T14:59:14.317Z,2.07
2018-08-13T15:01:50.490Z,2.33
2018-08-13T15:04:20.603Z,2.13
2018-08-13T15:06:52.473Z,1.87
2018-08-13T15:09:24.808Z,2.27
2018-08-13T15:11:57.632Z,2.40
2018-08-13T15:14:32.521Z,2.50
2018-08-13T15:17:02.366Z,2.20
2018-08-13T15:19:33.600Z,2.77
2018-08-13T15:22:05.180Z,2.30
2018-08-13T15:24:35.956Z,2.47
2018-08-13T15:27:08.034Z,2.37
2018-08-13T15:29:39.971Z,2.27
2018-08-13T15:32:11.683Z,2.47
2018-08-13T15:34:45.948Z,2.30
2018-08-13T15:37:16.771Z,2.17
2018-08-13T15:39:47.984Z,2.10
2018-08-13T15:42:17.818Z,2.47
2018-08-13T15:44:52.356Z,2.50
2018-08-13T15:47:23.379Z,2.43
2018-08-13T15:49:54.313Z,2.27
2018-08-13T15:52:24.884Z,3.27
2018-08-13T15:54:55.308Z,2.27
2018-08-13T15:57:27.636Z,2.40
2018-08-13T15:59:59.387Z,2.13
2018-08-13T16:02:29.218Z,2.67
2018-08-13T16:05:00.270Z,2.03
2018-08-13T16:07:33.234Z,2.50
2018-08-13T16:10:04.405Z,1.97
2018-08-13T16:12:34.230Z,2.33
2018-08-13T16:15:06.720Z,2.20
2018-08-13T16:17:39.411Z,2.40
2018-08-13T16:20:15.558Z,2.13
2018-08-13T16:22:46.325Z,2.43
2018-08-13T16:25:16.650Z,2.03
2018-08-13T16:27:47.326Z,2.10
2018-08-13T16:30:21.248Z,1.97
2018-08-13T16:32:57.603Z,2.40
2018-08-13T16:35:30.613Z,1.90
2018-08-13T16:38:03.397Z,2.47
2018-08-13T16:40:33.282Z,2.37
2018-08-13T16:43:03.790Z,2.00
2018-08-13T16:45:34.232Z,2.00
2018-08-13T16:48:04.465Z,1.90
2018-08-13T16:50:35.988Z,1.90
2018-08-13T16:53:05.957Z,1.87
2018-08-13T16:55:35.939Z,1.90
2018-08-13T16:58:06.719Z,1.97
2018-08-13T17:00:37.287Z,1.93
2018-08-13T17:03:07.969Z,1.80
2018-08-13T17:05:38.536Z,1.67
2018-08-13T17:08:08.383Z,2.00
2018-08-13T17:10:38.885Z,1.70
2018-08-13T17:13:09.684Z,1.73
2018-08-13T17:15:40.089Z,1.57
2018-08-13T17:18:09.980Z,1.70
2018-08-13T17:20:44.399Z,1.93
2018-08-13T17:23:14.235Z,1.73
2018-08-13T17:25:52.214Z,2.00
2018-08-13T17:28:22.811Z,2.37
2018-08-13T17:30:53.288Z,2.20
2018-08-13T17:33:28.036Z,2.13
2018-08-13T17:36:00.989Z,2.20
2018-08-13T17:38:31.407Z,2.30
2018-08-13T17:41:03.233Z,2.43
2018-08-13T17:43:33.479Z,2.70
2018-08-13T17:46:04.240Z,2.27
2018-08-13T17:48:34.245Z,2.43
2018-08-13T17:51:05.827Z,2.60
2018-08-13T17:53:37.097Z,2.13
2018-08-13T17:56:08.399Z,2.33
2018-08-13T17:58:38.699Z,2.60
2018-08-13T18:01:09.464Z,2.47
2018-08-13T18:03:39.464Z,2.40
2018-08-13T18:06:23.904Z,2.50
2018-08-13T18:08:54.093Z,2.70
2018-08-13T18:11:24.281Z,2.60
2018-08-13T18:13:56.443Z,2.50
2018-08-13T18:16:27.407Z,2.67
2018-08-13T18:19:03.088Z,2.63
2018-08-13T18:21:35.327Z,2.80
2018-08-13T18:24:07.361Z,2.77
2018-08-13T18:26:40.193Z,2.20
2018-08-13T18:29:16.395Z,2.47
2018-08-13T18:31:51.957Z,2.63
2018-08-13T18:34:21.816Z,2.37
2018-08-13T18:36:52.804Z,2.57
2018-08-13T18:39:25.924Z,2.53
2018-08-13T18:41:55.861Z,2.20
2018-08-13T18:44:27.638Z,2.80
2018-08-13T18:46:59.698Z,2.60
2018-08-13T18:49:30.592Z,2.60
2018-08-13T18:52:07.693Z,2.50
2018-08-13T18:54:47.927Z,2.60
2018-08-13T18:57:22.325Z,2.83
2018-08-13T18:59:56.446Z,2.30
2018-08-13T19:02:28.419Z,2.60
2018-08-13T19:04:58.345Z,2.50
2018-08-13T19:07:42.311Z,2.30
2018-08-13T19:10:13.641Z,2.47
2018-08-13T19:12:44.407Z,2.40
2018-08-13T19:15:17.343Z,2.70
2018-08-13T19:17:53.208Z,2.43
2018-08-13T19:20:23.539Z,2.20
2018-08-13T19:22:53.456Z,2.20
2018-08-13T19:25:24.986Z,2.33
2018-08-13T19:28:27.673Z,2.67
2018-08-13T19:31:00.384Z,2.47
2018-08-13T19:33:33.779Z,2.50
2018-08-13T19:36:09.763Z,2.20
2018-08-13T19:38:42.496Z,2.90
2018-08-13T19:43:59.229Z,2.30
2018-08-13T19:46:29.575Z,2.40
2018-08-13T19:49:03.958Z,2.50
2018-08-13T19:51:35.999Z,2.37
2018-08-13T19:54:09.312Z,2.83
2018-08-13T19:56:48.656Z,2.47
2018-08-13T19:59:20.345Z,2.60
2018-08-13T20:01:52.750Z,2.50
2018-08-13T20:04:22.748Z,2.57
2018-08-13T20:06:59.737Z,2.43
2018-08-13T20:09:33.580Z,2.57
2018-08-13T20:12:07.304Z,2.30
2018-08-13T20:14:42.256Z,2.57
2018-08-13T20:17:14.466Z,2.50
2018-08-13T20:19:46.467Z,2.30
2018-08-13T20:22:20.790Z,2.67
2018-08-13T20:24:52.118Z,2.40
2018-08-13T20:27:43.328Z,2.63
2018-08-13T20:30:17.273Z,2.73
2018-08-13T20:32:53.645Z,2.70
2018-08-13T20:35:26.553Z,2.50
2018-08-13T20:37:58.082Z,2.60
2018-08-13T20:40:48.186Z,2.30
2018-08-13T20:43:19.294Z,2.47
2018-08-13T20:45:51.194Z,2.20
2018-08-13T20:48:22.208Z,2.60
2018-08-13T20:50:52.575Z,2.90
2018-08-13T20:53:22.734Z,2.80
2018-08-13T20:55:53.920Z,2.53
2018-08-13T20:58:26.778Z,2.60
2018-08-13T21:01:00.763Z,2.37
2018-08-13T21:03:34.440Z,2.33
2018-08-13T21:06:06.553Z,2.60
2018-08-13T21:08:38.356Z,2.60
2018-08-13T21:11:09.285Z,2.50
2018-08-13T21:13:39.920Z,2.40
2018-08-13T21:16:10.657Z,2.50
2018-08-13T21:18:40.525Z,2.40
2018-08-13T21:21:15.684Z,2.33
2018-08-13T21:23:48.431Z,2.40
2018-08-13T21:26:18.264Z,2.80
2018-08-13T21:28:52.555Z,2.60
2018-08-13T21:31:24.300Z,2.10
2018-08-13T21:34:00.273Z,2.47
2018-08-13T21:36:31.000Z,2.47
2018-08-13T21:39:01.397Z,2.40
2018-08-13T21:41:33.769Z,2.60
2018-08-13T21:44:04.258Z,2.13
2018-08-13T21:46:34.804Z,2.63
2018-08-13T21:49:05.488Z,2.43
2018-08-13T21:51:36.527Z,2.43
2018-08-13T21:54:06.436Z,2.33
2018-08-13T21:56:37.936Z,2.30
2018-08-13T21:59:08.545Z,2.40
2018-08-13T22:01:45.378Z,2.87
2018-08-13T22:04:17.355Z,2.33
2018-08-13T22:07:03.360Z,2.20
2018-08-13T22:09:36.272Z,2.27
2018-08-13T22:12:10.456Z,2.10
2018-08-13T22:14:46.029Z,2.20
2018-08-13T22:17:16.505Z,2.00
2018-08-13T22:19:46.781Z,2.30
2018-08-13T22:22:16.605Z,2.20
2018-08-13T22:25:04.705Z,2.20
2018-08-13T22:27:34.663Z,2.00
2018-08-13T22:30:08.594Z,2.20
2018-08-13T22:32:39.171Z,2.50
2018-08-13T22:35:09.882Z,1.90
2018-08-13T22:37:41.858Z,2.13
2018-08-13T22:40:16.779Z,2.40
2018-08-13T22:42:47.828Z,2.30
2018-08-13T22:45:20.396Z,2.27
2018-08-13T22:47:50.716Z,2.17
2018-08-13T22:50:20.606Z,2.13
2018-08-13T22:52:50.580Z,2.20
2018-08-13T22:55:21.206Z,2.50
2018-08-13T22:57:51.127Z,2.20
2018-08-13T23:00:21.720Z,2.20
2018-08-13T23:03:07.991Z,2.27
2018-08-13T23:05:38.319Z,2.50
2018-08-13T23:08:11.554Z,2.60
2018-08-13T23:10:42.280Z,2.17
2018-08-13T23:13:22.201Z,2.20
2018-08-13T23:15:52.847Z,2.33
2018-08-13T23:18:23.108Z,2.00
2018-08-13T23:20:52.909Z,2.30
2018-08-13T23:23:22.751Z,2.10
2018-08-13T23:25:54.211Z,2.47
2018-08-13T23:28:24.045Z,2.00
2018-08-13T23:30:54.371Z,2.80
2018-08-13T23:33:24.621Z,2.60
2018-08-13T23:35:59.901Z,2.27
2018-08-13T23:38:29.800Z,2.30
2018-08-13T23:41:00.312Z,2.43
2018-08-13T23:43:30.139Z,2.47
2018-08-13T23:45:59.964Z,2.43
2018-08-13T23:48:29.796Z,2.57
2018-08-13T23:51:00.176Z,2.50
2018-08-13T23:53:30.967Z,2.57
2018-08-13T23:56:00.756Z,2.50
2018-08-13T23:58:30.585Z,2.40
